Time;durP1;ratioP1;P1;durP2;ratioP2;P2;SDS_P1;SDS_P2;PMS_P1;PMS_P2;Temp;Humidity;BMP_temperature;BMP_pressure;BME280_temperature;BME280_humidity;BME280_pressure;Samples;Min_cycle;Max_cycle;Signal;HPM_P1;HPM_P2
2021/03/26 00:01:27;;;;;;;85.18;43.92;;;;;;;3.70;52.14;95606.84;5092350;28;20199;-67
2021/03/26 00:03:55;;;;;;;80.88;42.50;;;;;;;3.54;52.37;95596.03;5101971;28;20203;-69
2021/03/26 00:06:28;;;;;;;73.72;39.38;;;;;;;3.66;51.60;95600.47;5090630;28;20256;-69
2021/03/26 00:08:55;;;;;;;69.72;38.55;;;;;;;3.64;51.88;95607.63;5101622;28;20238;-69
2021/03/26 00:11:24;;;;;;;72.60;38.40;;;;;;;3.53;52.43;95599.59;5091834;28;20219;-69
2021/03/26 00:13:51;;;;;;;73.78;39.40;;;;;;;3.46;52.51;95598.78;5103534;28;20629;-69
2021/03/26 00:16:19;;;;;;;74.57;40.35;;;;;;;3.20;52.52;95603.84;5093317;28;20195;-70
2021/03/26 00:18:46;;;;;;;77.30;40.47;;;;;;;3.29;53.11;95603.50;5101466;28;20281;-69
2021/03/26 00:21:14;;;;;;;71.85;39.72;;;;;;;3.29;52.83;95602.69;5111277;28;20179;-68
2021/03/26 00:23:41;;;;;;;76.68;40.65;;;;;;;3.22;53.11;95604.47;5104080;28;20307;-69
2021/03/26 00:26:08;;;;;;;75.88;40.13;;;;;;;3.02;52.57;95602.59;5091761;28;20197;-69
2021/03/26 00:28:34;;;;;;;71.18;36.42;;;;;;;2.73;53.48;95608.00;5092014;28;20201;-69
2021/03/26 00:31:01;;;;;;;71.80;38.00;;;;;;;2.90;52.94;95601.50;5091260;28;20230;-69
2021/03/26 00:33:28;;;;;;;62.85;33.85;;;;;;;2.84;53.39;95607.47;5090578;28;20605;-68
2021/03/26 00:35:55;;;;;;;61.90;34.03;;;;;;;2.59;53.45;95611.47;5091011;28;20221;-68
2021/03/26 00:38:23;;;;;;;58.30;32.80;;;;;;;2.41;54.56;95613.72;5090738;28;20218;-69
2021/03/26 00:40:50;;;;;;;55.83;31.30;;;;;;;2.16;54.66;95609.94;5093216;28;20282;-68
2021/03/26 00:43:17;;;;;;;53.40;28.48;;;;;;;2.46;53.94;95610.59;5090998;28;20729;-69
2021/03/26 00:45:43;;;;;;;58.70;30.27;;;;;;;2.44;53.69;95603.03;5091072;28;20215;-70
2021/03/26 00:48:11;;;;;;;56.30;30.02;;;;;;;2.31;53.52;95602.91;5090462;28;20199;-69
2021/03/26 00:50:44;;;;;;;45.10;25.02;;;;;;;2.84;52.72;95604.88;5089548;28;20264;-69
2021/03/26 00:53:21;;;;;;;52.10;28.50;;;;;;;2.99;52.14;95608.13;5094947;28;20634;-70
2021/03/26 00:55:48;;;;;;;56.63;31.27;;;;;;;2.94;52.40;95605.31;5090748;28;20179;-69
2021/03/26 00:58:16;;;;;;;58.65;31.85;;;;;;;2.88;53.41;95606.09;5100661;28;20309;-68
2021/03/26 01:00:43;;;;;;;57.92;32.17;;;;;;;2.94;52.88;95605.31;5089162;28;20203;-70
2021/03/26 01:03:13;;;;;;;64.13;32.92;;;;;;;2.83;53.41;95605.84;5100708;28;20301;-69
2021/03/26 01:05:46;;;;;;;59.38;32.75;;;;;;;2.76;53.63;95602.44;5091101;28;20293;-69
2021/03/26 01:08:13;;;;;;;53.83;31.35;;;;;;;2.98;53.03;95606.56;5100290;28;20609;-69
2021/03/26 01:10:50;;;;;;;56.63;32.00;;;;;;;2.94;53.20;95613.09;5090601;28;20195;-69
2021/03/26 01:13:17;;;;;;;63.58;31.42;;;;;;;3.14;52.63;95604.66;5100526;28;20225;-69
2021/03/26 01:15:46;;;;;;;54.22;29.55;;;;;;;3.16;52.46;95605.25;5088690;28;20707;-68
2021/03/26 01:18:40;;;;;;;51.35;27.00;;;;;;;3.12;52.07;95610.00;5101830;28;20213;-69
2021/03/26 01:21:12;;;;;;;47.40;24.05;;;;;;;3.06;52.11;95600.41;5088758;28;20637;-68
2021/03/26 01:23:43;;;;;;;44.90;23.38;;;;;;;3.11;51.61;95605.81;5100599;28;20199;-69
2021/03/26 01:26:11;;;;;;;46.05;23.38;;;;;;;3.05;51.85;95593.63;5089923;28;20203;-70
2021/03/26 01:28:54;;;;;;;43.35;23.80;;;;;;;3.10;51.28;95602.41;5099361;28;20244;-69
2021/03/26 01:31:29;;;;;;;46.20;24.27;;;;;;;2.60;52.04;95609.69;5089748;28;20224;-70
2021/03/26 01:34:00;;;;;;;47.25;24.40;;;;;;;2.83;51.97;95613.63;5098570;28;20199;-69
2021/03/26 01:36:28;;;;;;;42.75;23.83;;;;;;;2.92;51.79;95602.13;5090962;28;20195;-70
2021/03/26 01:38:55;;;;;;;45.28;25.70;;;;;;;2.86;52.06;95602.09;5098995;28;20821;-69
2021/03/26 01:41:25;;;;;;;49.53;27.52;;;;;;;2.75;52.96;95616.38;5089021;28;20248;-70
2021/03/26 01:43:52;;;;;;;55.13;28.52;;;;;;;2.97;52.70;95609.34;5099615;28;20203;-69
2021/03/26 01:46:20;;;;;;;56.28;29.73;;;;;;;2.92;52.34;95616.84;5088506;28;20202;-69
2021/03/26 01:48:52;;;;;;;53.83;30.35;;;;;;;2.81;52.58;95620.00;5088994;28;20203;-69
2021/03/26 01:51:30;;;;;;;53.17;31.38;;;;;;;2.73;52.82;95615.75;5089633;28;20233;-70
2021/03/26 01:53:57;;;;;;;61.58;35.22;;;;;;;2.86;52.65;95623.63;5090000;28;20739;-69
2021/03/26 01:56:27;;;;;;;61.65;33.67;;;;;;;2.87;52.53;95625.19;5087982;28;20206;-68
2021/03/26 01:59:12;;;;;;;77.70;39.40;;;;;;;2.76;53.35;95620.56;5090215;28;20312;-68
2021/03/26 02:02:10;;;;;;;80.53;41.92;;;;;;;2.71;53.40;95638.44;5092040;28;20191;-68
2021/03/26 02:05:08;;;;;;;95.97;48.42;;;;;;;2.60;53.33;95638.97;5104810;28;20215;-67
2021/03/26 02:07:49;;;;;;;136.70;59.65;;;;;;;2.47;53.59;95644.03;5103265;28;20234;-68
2021/03/26 02:10:22;;;;;;;125.47;58.40;;;;;;;2.31;53.81;95646.88;5112150;28;20210;-69
2021/03/26 02:12:58;;;;;;;125.10;56.95;;;;;;;2.38;53.91;95639.97;5103427;28;20229;-68
2021/03/26 02:15:33;;;;;;;115.55;52.83;;;;;;;2.36;54.15;95652.28;5111022;28;20304;-67
2021/03/26 02:18:00;;;;;;;117.13;51.80;;;;;;;2.17;54.64;95637.41;5102190;28;20195;-67
2021/03/26 02:20:40;;;;;;;113.90;51.42;;;;;;;2.30;54.31;95652.25;5112453;28;20284;-66
2021/03/26 02:23:15;;;;;;;109.57;50.10;;;;;;;2.28;54.39;95644.66;5107700;28;20210;-68
2021/03/26 02:25:59;;;;;;;104.60;50.10;;;;;;;2.32;54.14;95645.09;5112516;28;20251;-68
2021/03/26 02:28:27;;;;;;;106.90;49.70;;;;;;;2.10;53.92;95621.03;5099919;28;20298;-68
2021/03/26 02:31:13;;;;;;;101.18;47.72;;;;;;;2.18;54.35;95638.19;5112335;28;20363;-68
2021/03/26 02:33:40;;;;;;;96.40;46.45;;;;;;;2.26;54.23;95646.66;5103028;28;20644;-68
2021/03/26 02:36:12;;;;;;;94.68;46.47;;;;;;;2.29;53.59;95646.25;5113587;28;20190;-68
2021/03/26 02:39:02;;;;;;;96.28;44.83;;;;;;;2.11;54.06;95653.66;5103793;28;20211;-68
2021/03/26 02:41:40;;;;;;;94.50;44.13;;;;;;;1.85;54.55;95653.38;5109290;28;20201;-68
2021/03/26 02:44:23;;;;;;;77.00;39.53;;;;;;;1.62;55.37;95663.88;5110474;28;20210;-68
2021/03/26 02:47:14;;;;;;;81.45;38.58;;;;;;;1.62;55.58;95673.41;5108041;28;20203;-70
2021/03/26 02:50:08;;;;;;;77.90;38.67;;;;;;;1.42;55.56;95672.38;5100994;28;20298;-69
2021/03/26 02:52:47;;;;;;;74.13;35.20;;;;;;;1.42;55.77;95669.78;5098206;28;20214;-70
2021/03/26 02:55:24;;;;;;;65.60;33.88;;;;;;;1.59;55.56;95671.16;5094895;28;20605;-69
2021/03/26 02:58:01;;;;;;;68.85;33.53;;;;;;;1.58;55.46;95672.16;5099851;28;20206;-67
2021/03/26 03:00:39;;;;;;;64.72;33.03;;;;;;;1.84;54.88;95677.63;5093019;28;20784;-70
2021/03/26 03:03:13;;;;;;;80.22;37.78;;;;;;;1.93;54.94;95676.53;5104346;28;20195;-70
2021/03/26 03:05:49;;;;;;;64.88;33.00;;;;;;;1.39;55.97;95683.84;5091483;28;20211;-68
2021/03/26 03:08:33;;;;;;;67.55;33.05;;;;;;;1.58;55.38;95683.31;5103017;28;20283;-69
2021/03/26 03:11:23;;;;;;;64.80;32.30;;;;;;;1.56;55.33;95679.28;5091683;28;20215;-71
2021/03/26 03:14:10;;;;;;;60.75;30.55;;;;;;;1.63;54.85;95680.97;5102161;28;20203;-67
2021/03/26 03:16:42;;;;;;;62.88;30.75;;;;;;;1.85;54.75;95674.88;5093505;28;20199;-68
2021/03/26 03:19:31;;;;;;;73.28;35.15;;;;;;;1.83;54.94;95676.03;5100616;28;20741;-67
2021/03/26 03:22:24;;;;;;;72.68;34.53;;;;;;;1.70;55.71;95693.94;5093499;28;20553;-68
2021/03/26 03:24:54;;;;;;;62.80;32.08;;;;;;;1.58;55.61;95693.63;5104897;28;20214;-70
2021/03/26 03:27:22;;;;;;;64.72;32.33;;;;;;;1.44;56.23;95696.25;5106181;28;20225;-70
2021/03/26 03:30:18;;;;;;;62.70;31.40;;;;;;;1.46;56.50;95689.13;5104483;28;20263;-69
2021/03/26 03:33:12;;;;;;;60.45;30.92;;;;;;;1.52;56.25;95688.38;5106324;28;20308;-70
2021/03/26 03:35:59;;;;;;;63.33;31.02;;;;;;;1.66;55.63;95695.31;5091411;28;20209;-69
2021/03/26 03:39:08;;;;;;;65.07;31.77;;;;;;;1.59;56.09;95694.41;5104964;28;20191;-69
2021/03/26 03:42:37;;;;;;;59.30;31.00;;;;;;;1.53;55.85;95690.00;5083969;28;20225;-68
2021/03/26 03:45:27;;;;;;;55.33;29.15;;;;;;;1.69;55.81;95702.69;5102936;28;20265;-69
2021/03/26 03:48:06;;;;;;;62.25;30.88;;;;;;;1.73;55.48;95709.88;5100960;28;20210;-69
2021/03/26 03:50:44;;;;;;;55.72;29.30;;;;;;;1.85;55.09;95711.03;5092233;28;20226;-69
2021/03/26 03:53:23;;;;;;;60.25;29.85;;;;;;;1.82;55.73;95713.19;5101756;28;20209;-71
2021/03/26 03:56:02;;;;;;;61.45;30.55;;;;;;;1.75;55.55;95714.91;5090728;28;20199;-69
2021/03/26 03:58:38;;;;;;;61.05;32.03;;;;;;;1.74;55.76;95715.88;5098556;28;20768;-69
2021/03/26 04:01:16;;;;;;;62.80;33.13;;;;;;;1.70;55.77;95712.03;5109884;28;20255;-70
2021/03/26 04:03:50;;;;;;;63.00;32.33;;;;;;;1.80;55.34;95728.06;5107189;28;20684;-70
2021/03/26 04:06:35;;;;;;;61.70;31.48;;;;;;;1.85;55.41;95720.56;5090186;28;20230;-70
2021/03/26 04:09:14;;;;;;;54.53;29.13;;;;;;;1.79;55.48;95721.28;5103435;28;20210;-69
2021/03/26 04:11:52;;;;;;;49.45;26.98;;;;;;;1.66;54.89;95723.75;5099078;28;20214;-70
2021/03/26 04:14:45;;;;;;;51.75;27.90;;;;;;;1.71;55.73;95724.00;5110721;28;20202;-70
2021/03/26 04:17:25;;;;;;;54.60;29.05;;;;;;;1.70;55.86;95727.53;5106698;28;20279;-69
2021/03/26 04:20:00;;;;;;;57.20;28.40;;;;;;;1.65;55.42;95725.50;5104447;28;20214;-68
2021/03/26 04:22:32;;;;;;;63.35;32.22;;;;;;;1.64;55.19;95731.63;5105206;28;20256;-70
2021/03/26 04:25:23;;;;;;;70.60;35.20;;;;;;;1.64;55.25;95728.28;5093448;28;20230;-69
2021/03/26 04:28:18;;;;;;;82.43;39.88;;;;;;;1.47;55.64;95735.41;5102309;28;20206;-71
2021/03/26 04:31:00;;;;;;;86.80;41.88;;;;;;;1.55;55.84;95729.34;5090024;28;20299;-70
2021/03/26 04:33:54;;;;;;;79.70;40.42;;;;;;;1.52;55.51;95734.88;5100889;28;20202;-70
2021/03/26 04:36:48;;;;;;;76.75;39.50;;;;;;;1.67;55.66;95739.06;5108059;28;20204;-70
2021/03/26 04:40:03;;;;;;;74.20;37.78;;;;;;;1.53;55.83;95736.47;5098926;28;20260;-69
2021/03/26 04:43:02;;;;;;;64.63;33.47;;;;;;;1.64;55.63;95730.88;5095600;28;20194;-70
2021/03/26 04:45:48;;;;;;;59.25;30.20;;;;;;;1.58;55.78;95739.31;5092118;28;20195;-69
2021/03/26 04:48:42;;;;;;;52.75;28.10;;;;;;;1.46;56.00;95736.38;5099080;28;20280;-68
2021/03/26 04:51:39;;;;;;;54.45;28.58;;;;;;;1.47;56.15;95750.91;5108110;28;20309;-67
2021/03/26 04:54:28;;;;;;;55.15;28.75;;;;;;;1.54;56.02;95751.78;5100089;28;20240;-67
2021/03/26 04:57:11;;;;;;;50.47;26.67;;;;;;;1.48;55.96;95754.31;5091978;28;20195;-69
2021/03/26 04:59:54;;;;;;;48.97;26.17;;;;;;;1.57;55.97;95753.22;5102841;28;20190;-68
2021/03/26 05:02:38;;;;;;;41.90;24.80;;;;;;;1.50;55.96;95760.06;5098808;28;20244;-69
2021/03/26 05:05:07;;;;;;;44.60;24.27;;;;;;;1.62;55.60;95759.47;5109925;28;20672;-69
2021/03/26 05:08:07;;;;;;;49.78;25.45;;;;;;;1.82;55.16;95767.44;5072978;28;20325;-69
2021/03/26 05:10:58;;;;;;;51.42;26.35;;;;;;;1.79;55.04;95762.63;5095096;28;20214;-70
2021/03/26 05:13:32;;;;;;;54.72;24.42;;;;;;;1.73;54.86;95760.78;5111242;28;20694;-70
2021/03/26 05:16:18;;;;;;;44.58;22.65;;;;;;;1.82;55.16;95782.97;5100863;28;20219;-70
2021/03/26 05:19:43;;;;;;;43.65;23.48;;;;;;;1.72;55.03;95777.25;5092913;28;20301;-68
2021/03/26 05:22:28;;;;;;;38.70;22.48;;;;;;;1.77;55.26;95785.28;5103018;28;20210;-69
2021/03/26 05:25:34;;;;;;;36.58;21.65;;;;;;;1.75;55.78;95789.81;5106346;28;20752;-67
2021/03/26 05:28:25;;;;;;;41.15;21.67;;;;;;;1.84;55.44;95770.66;5111005;28;20195;-67
2021/03/26 05:31:28;;;;;;;38.75;19.55;;;;;;;1.88;54.50;95783.03;5109793;28;20696;-70
2021/03/26 05:33:59;;;;;;;34.20;19.80;;;;;;;1.93;54.02;95782.50;5109913;28;20675;-74
2021/03/26 05:36:36;;;;;;;34.90;19.10;;;;;;;2.00;53.54;95786.78;5110928;28;20251;-70
2021/03/26 05:39:31;;;;;;;35.63;19.60;;;;;;;2.10;53.03;95778.72;5070309;28;20206;-66
2021/03/26 05:42:29;;;;;;;31.58;18.60;;;;;;;2.56;52.07;95792.94;5091195;28;20691;-67
2021/03/26 05:45:36;;;;;;;61.35;34.58;;;;;;;2.63;52.42;95793.00;5089178;28;20239;-65
2021/03/26 05:48:49;;;;;;;43.25;23.42;;;;;;;2.82;52.67;95790.63;5058790;28;20211;-70
2021/03/26 05:51:32;;;;;;;35.13;19.10;;;;;;;2.83;51.58;95794.78;5091393;28;20215;-73
2021/03/26 05:54:31;;;;;;;36.35;17.90;;;;;;;2.74;50.72;95795.91;5093256;28;20198;-71
2021/03/26 05:57:31;;;;;;;36.05;18.90;;;;;;;2.75;50.84;95791.53;5088898;28;20213;-70
2021/03/26 06:00:37;;;;;;;38.30;19.15;;;;;;;2.73;51.16;95799.50;5087875;28;20217;-66
2021/03/26 06:03:48;;;;;;;41.85;18.17;;;;;;;2.72;50.61;95803.06;5089064;28;20293;-78
2021/03/26 06:07:08;;;;;;;42.25;19.63;;;;;;;2.86;50.50;95799.63;5079828;28;20227;-74
2021/03/26 06:10:09;;;;;;;41.88;20.40;;;;;;;2.82;50.89;95803.56;5089838;28;20206;-70
2021/03/26 06:13:25;;;;;;;36.20;19.75;;;;;;;2.99;51.66;95812.66;5035149;28;20265;-69
2021/03/26 06:16:19;;;;;;;42.88;20.85;;;;;;;3.18;50.54;95807.81;5090278;28;20332;-76
2021/03/26 06:19:21;;;;;;;37.40;18.83;;;;;;;3.52;49.79;95805.31;5089505;28;20210;-74
2021/03/26 06:22:35;;;;;;;41.47;21.13;;;;;;;3.25;49.98;95806.09;5088811;28;20206;-70
2021/03/26 06:25:34;;;;;;;42.47;23.90;;;;;;;2.73;51.05;95820.19;5088605;28;20203;-69
2021/03/26 06:28:36;;;;;;;39.13;22.60;;;;;;;3.17;50.72;95814.00;5088792;28;20583;-73
2021/03/26 06:31:31;;;;;;;39.40;20.55;;;;;;;3.95;49.66;95810.13;5091984;28;20571;-68
2021/03/26 06:34:50;;;;;;;38.97;20.27;;;;;;;4.24;49.14;95810.84;5092127;28;20244;-66
2021/03/26 06:37:19;;;;;;;57.95;22.23;;;;;;;4.34;49.31;95806.91;5090828;28;20283;-73
2021/03/26 06:39:51;;;;;;;54.10;22.38;;;;;;;4.47;49.45;95817.31;5090023;28;20210;-69
2021/03/26 06:42:46;;;;;;;39.47;21.88;;;;;;;4.64;48.94;95808.19;5090037;28;20191;-72
2021/03/26 06:45:31;;;;;;;38.70;21.48;;;;;;;4.79;48.63;95814.03;5090137;28;20194;-72
2021/03/26 06:48:15;;;;;;;45.65;22.20;;;;;;;4.99;48.46;95812.25;5089918;28;20202;-70
2021/03/26 06:51:12;;;;;;;51.08;23.55;;;;;;;5.07;47.76;95819.06;5089892;28;20266;-67
2021/03/26 06:54:06;;;;;;;51.08;25.52;;;;;;;5.18;48.16;95815.06;5089709;28;20294;-69
2021/03/26 06:56:53;;;;;;;51.72;27.02;;;;;;;5.42;46.93;95812.66;5091241;28;20183;-68
2021/03/26 06:59:42;;;;;;;47.35;27.98;;;;;;;5.51;47.35;95821.06;5093692;28;20191;-67
2021/03/26 07:02:44;;;;;;;64.40;30.38;;;;;;;5.47;47.58;95819.84;5093633;28;20240;-70
2021/03/26 07:05:33;;;;;;;59.70;31.35;;;;;;;5.42;47.13;95822.28;5093493;28;20245;-69
2021/03/26 07:07:59;;;;;;;56.88;29.77;;;;;;;5.54;48.44;95828.44;5093287;28;20292;-70
2021/03/26 07:10:35;;;;;;;54.10;29.02;;;;;;;5.67;48.01;95831.03;5093121;28;20191;-71
2021/03/26 07:13:07;;;;;;;56.72;29.65;;;;;;;5.93;47.25;95828.44;5093262;28;20608;-66
2021/03/26 07:15:58;;;;;;;60.63;28.85;;;;;;;6.13;46.54;95823.97;5093229;28;20191;-70
2021/03/26 07:18:58;;;;;;;34.83;20.95;;;;;;;6.10;44.34;95832.97;5093413;28;20191;-68
2021/03/26 07:21:49;;;;;;;38.42;20.42;;;;;;;6.37;45.79;95823.28;5093288;28;20206;-68
2021/03/26 07:24:47;;;;;;;31.70;18.70;;;;;;;6.76;44.39;95828.31;5093018;28;20199;-71
2021/03/26 07:27:19;;;;;;;38.80;20.48;;;;;;;7.07;43.88;95825.72;5093454;28;20238;-70
2021/03/26 07:30:22;;;;;;;40.30;19.15;;;;;;;7.19;42.93;95829.22;5093137;28;20214;-68
2021/03/26 07:32:54;;;;;;;31.67;15.52;;;;;;;6.96;40.85;95817.75;5092926;28;20229;-69
2021/03/26 07:35:45;;;;;;;28.95;15.27;;;;;;;7.00;40.78;95824.97;5093380;28;20203;-68
2021/03/26 07:38:29;;;;;;;28.23;16.15;;;;;;;7.21;39.58;95830.84;5092588;28;20311;-68
2021/03/26 07:41:13;;;;;;;26.15;14.85;;;;;;;7.16;39.53;95828.84;5093240;28;20641;-65
2021/03/26 07:43:40;;;;;;;27.60;14.38;;;;;;;7.01;39.75;95836.97;5093039;28;20218;-72
2021/03/26 07:46:31;;;;;;;20.27;12.23;;;;;;;7.11;39.01;95831.31;5093019;28;20175;-69
2021/03/26 07:50:08;;;;;;;21.00;12.65;;;;;;;7.17;38.83;95833.84;5092882;28;20252;-68
2021/03/26 07:52:37;;;;;;;21.58;12.45;;;;;;;6.96;39.33;95834.19;5086532;28;20329;-67
2021/03/26 07:55:20;;;;;;;22.23;13.23;;;;;;;6.86;38.95;95813.00;5092753;28;20668;-71
2021/03/26 07:58:19;;;;;;;20.92;12.88;;;;;;;7.19;38.51;95834.44;5092695;28;20293;-69
2021/03/26 08:00:54;;;;;;;23.83;13.13;;;;;;;7.43;38.48;95834.66;5091545;28;20579;-70
2021/03/26 08:03:42;;;;;;;33.70;13.35;;;;;;;7.67;38.08;95831.25;5092914;28;20252;-72
2021/03/26 08:06:45;;;;;;;23.92;12.95;;;;;;;7.66;37.45;95840.91;5098897;28;20232;-67
2021/03/26 08:09:32;;;;;;;22.80;11.82;;;;;;;7.59;37.74;95845.34;5091142;28;20199;-70
2021/03/26 08:12:40;;;;;;;18.27;11.68;;;;;;;7.86;37.05;95849.34;5091997;28;20642;-71
2021/03/26 08:15:27;;;;;;;20.73;12.43;;;;;;;7.86;36.32;95851.16;5092259;28;20282;-70
2021/03/26 08:18:33;;;;;;;22.75;11.68;;;;;;;8.20;35.97;95854.03;5092055;28;20195;-65
2021/03/26 08:21:17;;;;;;;19.30;11.73;;;;;;;8.21;36.73;95852.22;5092128;28;20199;-76
2021/03/26 08:23:58;;;;;;;20.55;12.13;;;;;;;7.97;35.89;95855.69;5091706;28;20356;-70
2021/03/26 08:26:30;;;;;;;19.55;11.43;;;;;;;7.90;36.67;95863.53;5092200;28;20199;-66
2021/03/26 08:29:25;;;;;;;19.75;11.52;;;;;;;7.86;36.17;95856.38;5091824;28;20191;-66
2021/03/26 08:32:20;;;;;;;20.35;11.80;;;;;;;7.80;36.68;95867.66;5090402;28;20697;-69
2021/03/26 08:35:11;;;;;;;21.48;12.23;;;;;;;8.42;36.35;95857.03;5091963;28;20669;-69
2021/03/26 08:37:46;;;;;;;17.42;11.60;;;;;;;8.49;36.16;95857.75;5091710;28;20191;-71
2021/03/26 08:40:20;;;;;;;21.42;11.18;;;;;;;8.68;36.16;95854.13;5091804;28;20205;-64
2021/03/26 08:42:50;;;;;;;16.70;11.45;;;;;;;8.54;36.01;95857.88;5092777;28;20199;-66
2021/03/26 08:45:28;;;;;;;21.85;11.48;;;;;;;8.70;35.21;95851.28;5093590;28;20202;-69
2021/03/26 08:47:57;;;;;;;21.42;11.63;;;;;;;8.71;34.93;95851.06;5092821;28;20575;-71
2021/03/26 08:50:30;;;;;;;19.40;10.95;;;;;;;8.37;35.06;95859.50;5091653;28;20320;-71
2021/03/26 08:53:27;;;;;;;19.90;11.23;;;;;;;8.25;35.49;95850.78;5091461;28;20688;-68
2021/03/26 08:56:24;;;;;;;18.52;10.38;;;;;;;8.42;34.85;95856.22;5090154;28;20199;-68
2021/03/26 08:59:15;;;;;;;19.15;10.90;;;;;;;8.69;35.39;95852.28;5091465;28;20199;-68
2021/03/26 09:02:17;;;;;;;17.48;10.90;;;;;;;9.18;34.86;95847.59;5092213;28;20218;-70
2021/03/26 09:05:37;;;;;;;18.85;11.23;;;;;;;8.91;34.75;95846.38;5091917;28;20199;-70
2021/03/26 09:08:07;;;;;;;21.80;11.27;;;;;;;9.13;33.82;95850.09;5068253;28;20319;-67
2021/03/26 09:11:14;;;;;;;17.80;10.82;;;;;;;8.83;34.34;95849.28;5087497;28;20287;-69
2021/03/26 09:13:53;;;;;;;16.13;10.57;;;;;;;9.40;34.15;95844.47;5091240;28;20214;-69
2021/03/26 09:16:27;;;;;;;19.50;11.13;;;;;;;9.66;33.22;95849.28;5091053;28;20207;-69
2021/03/26 09:19:10;;;;;;;16.48;10.70;;;;;;;9.88;34.07;95837.22;5090624;28;20441;-66
2021/03/26 09:21:52;;;;;;;15.77;10.57;;;;;;;9.63;33.67;95849.75;5091059;28;20190;-69
2021/03/26 09:24:25;;;;;;;14.70;9.80;;;;;;;9.51;32.14;95846.28;5090797;28;20725;-66
2021/03/26 09:27:20;;;;;;;17.13;10.47;;;;;;;9.71;32.77;95838.91;5090954;28;20433;-68
2021/03/26 09:30:18;;;;;;;17.77;10.45;;;;;;;9.98;31.48;95843.50;5090935;28;20498;-66
2021/03/26 09:32:58;;;;;;;19.17;11.10;;;;;;;10.07;31.48;95828.25;5090870;28;20198;-69
2021/03/26 09:35:47;;;;;;;26.83;11.23;;;;;;;10.41;32.24;95831.84;5092927;28;20958;-69
2021/03/26 09:38:13;;;;;;;17.47;10.17;;;;;;;10.80;32.01;95834.47;5088874;28;20532;-69
2021/03/26 09:40:53;;;;;;;14.93;9.77;;;;;;;10.37;31.16;95834.16;5090683;28;20444;-66
2021/03/26 09:43:34;;;;;;;13.10;8.67;;;;;;;9.71;31.36;95834.50;5090665;28;20452;-69
2021/03/26 09:46:06;;;;;;;19.30;10.10;;;;;;;10.02;31.64;95843.81;5090589;28;20432;-66
2021/03/26 09:48:53;;;;;;;15.87;9.70;;;;;;;10.36;30.59;95840.44;5091095;28;20962;-68
2021/03/26 09:51:41;;;;;;;21.70;11.07;;;;;;;10.95;30.62;95837.38;5090681;28;20429;-67
2021/03/26 09:54:40;;;;;;;15.13;10.30;;;;;;;10.78;29.96;95839.19;5090539;28;20532;-64
2021/03/26 09:57:21;;;;;;;12.83;9.13;;;;;;;10.75;30.58;95829.13;5090537;28;20448;-75
2021/03/26 10:00:20;;;;;;;14.80;10.27;;;;;;;10.52;30.83;95828.41;5090805;28;20444;-69
2021/03/26 10:02:52;;;;;;;15.43;10.17;;;;;;;10.65;30.16;95826.34;5089580;28;20453;-67
2021/03/26 10:05:26;;;;;;;20.83;9.90;;;;;;;10.72;30.03;95829.63;5090311;28;20810;-64
2021/03/26 10:08:19;;;;;;;18.27;10.10;;;;;;;10.39;30.53;95823.44;5089750;28;20481;-69
2021/03/26 10:10:48;;;;;;;13.47;9.27;;;;;;;11.07;30.33;95822.41;5090621;28;20479;-66
2021/03/26 10:13:22;;;;;;;20.57;9.43;;;;;;;11.55;29.79;95823.75;5090041;28;20954;-69
2021/03/26 10:16:02;;;;;;;17.13;10.03;;;;;;;11.03;29.38;95816.03;5090467;28;20463;-71
2021/03/26 10:18:40;;;;;;;16.90;9.03;;;;;;;10.93;29.57;95821.09;5090238;28;20436;-69
2021/03/26 10:21:11;;;;;;;21.37;10.80;;;;;;;10.86;30.02;95830.13;5090467;28;20445;-68
2021/03/26 10:24:08;;;;;;;14.83;9.87;;;;;;;11.00;29.00;95811.25;5090403;28;20452;-68
2021/03/26 10:26:42;;;;;;;15.43;9.53;;;;;;;11.14;28.82;95815.19;5091588;28;20453;-67
2021/03/26 10:29:41;;;;;;;16.23;9.50;;;;;;;11.58;28.34;95815.38;5101456;28;20472;-70
2021/03/26 10:32:29;;;;;;;16.10;10.00;;;;;;;11.53;28.79;95815.31;5087322;28;20838;-69
2021/03/26 10:34:59;;;;;;;16.80;10.70;;;;;;;11.76;31.61;95815.97;5101038;28;21052;-69
2021/03/26 10:37:40;;;;;;;16.27;10.43;;;;;;;12.35;28.71;95803.91;5097276;28;20456;-68
2021/03/26 10:40:07;;;;;;;17.07;10.00;;;;;;;11.63;28.66;95807.56;5097178;28;20587;-70
2021/03/26 10:43:04;;;;;;;19.00;10.50;;;;;;;12.29;29.91;95815.41;5106695;28;20444;-69
2021/03/26 10:45:52;;;;;;;22.67;10.87;;;;;;;11.93;29.34;95821.19;5102865;28;20977;-69
2021/03/26 10:49:02;;;;;;;17.13;10.40;;;;;;;11.05;29.87;95824.47;5092146;28;20428;-66
2021/03/26 10:52:07;;;;;;;16.43;9.60;;;;;;;11.32;27.91;95813.38;5093445;28;20444;-67
2021/03/26 10:55:12;;;;;;;17.33;10.40;;;;;;;10.89;29.98;95809.47;5087565;28;20475;-69
2021/03/26 10:57:54;;;;;;;19.57;10.70;;;;;;;12.03;32.07;95824.75;5093615;28;20437;-69
2021/03/26 11:00:27;;;;;;;16.43;9.90;;;;;;;12.09;30.16;95799.34;5093371;28;20448;-68
2021/03/26 11:03:06;;;;;;;15.83;9.67;;;;;;;12.44;30.15;95791.94;5093748;28;20444;-68
2021/03/26 11:05:36;;;;;;;14.53;9.77;;;;;;;12.78;29.29;95801.25;5095533;28;20532;-70
2021/03/26 11:08:02;;;;;;;16.77;10.70;;;;;;;13.22;29.64;95794.09;5093254;28;20461;-67
2021/03/26 11:10:39;;;;;;;13.67;9.70;;;;;;;13.38;29.57;95797.66;5093677;28;20449;-70
2021/03/26 11:13:20;;;;;;;16.83;10.30;;;;;;;13.29;28.01;95796.53;5093243;28;20480;-72
2021/03/26 11:15:54;;;;;;;18.47;10.27;;;;;;;13.64;28.24;95791.56;5093280;28;21048;-69
2021/03/26 11:18:26;;;;;;;16.80;10.07;;;;;;;13.58;27.27;95789.91;5093027;28;20820;-71
2021/03/26 11:21:02;;;;;;;17.67;9.87;;;;;;;13.41;27.33;95797.16;5092943;28;20445;-67
2021/03/26 11:23:31;;;;;;;16.90;9.17;;;;;;;13.06;26.29;95782.63;5093240;28;20429;-71
2021/03/26 11:26:05;;;;;;;13.77;9.30;;;;;;;13.42;27.93;95782.94;5093140;28;20437;-69
2021/03/26 11:28:55;;;;;;;17.30;10.10;;;;;;;13.68;25.85;95792.63;5093152;28;20433;-68
2021/03/26 11:31:24;;;;;;;14.67;9.83;;;;;;;13.60;25.89;95785.19;5093226;28;20544;-66
2021/03/26 11:34:00;;;;;;;15.57;8.57;;;;;;;13.97;26.61;95780.72;5092859;28;20879;-68
2021/03/26 11:36:38;;;;;;;16.07;9.33;;;;;;;14.29;27.14;95767.50;5099094;28;20436;-66
2021/03/26 11:39:27;;;;;;;16.60;9.87;;;;;;;14.19;25.93;95774.28;5113205;27;20436;-74
2021/03/26 11:41:56;;;;;;;14.50;9.43;;;;;;;14.24;25.18;95774.28;5110591;28;20428;-68
2021/03/26 11:44:28;;;;;;;13.60;9.07;;;;;;;14.77;27.62;95765.28;5112573;28;20440;-71
2021/03/26 11:47:00;;;;;;;15.13;9.17;;;;;;;15.02;26.54;95752.13;5110729;28;20515;-71
2021/03/26 11:49:33;;;;;;;14.40;9.53;;;;;;;15.26;24.95;95762.97;5112500;28;20424;-74
2021/03/26 11:51:59;;;;;;;15.47;9.43;;;;;;;14.01;25.38;95763.34;5112158;28;20499;-73
2021/03/26 11:54:44;;;;;;;15.20;9.23;;;;;;;14.48;25.47;95756.22;5112035;28;20432;-73
2021/03/26 11:57:19;;;;;;;13.77;9.53;;;;;;;14.47;25.61;95749.34;5110147;28;20436;-71
2021/03/26 11:59:58;;;;;;;13.60;9.83;;;;;;;15.11;24.45;95742.63;5110517;28;20459;-70
2021/03/26 12:02:25;;;;;;;15.63;9.27;;;;;;;15.63;25.92;95744.25;5112395;28;20448;-67
2021/03/26 12:05:08;;;;;;;13.47;9.23;;;;;;;15.21;23.87;95755.06;5112769;28;20439;-70
2021/03/26 12:07:54;;;;;;;14.83;8.70;;;;;;;14.84;22.88;95738.63;5112595;28;20504;-67
2021/03/26 12:10:32;;;;;;;11.67;7.90;;;;;;;14.92;23.99;95754.78;5112512;28;20574;-71
2021/03/26 12:13:14;;;;;;;11.43;8.03;;;;;;;14.54;23.29;95760.47;5111208;28;20483;-70
2021/03/26 12:15:54;;;;;;;13.07;7.97;;;;;;;14.84;24.30;95750.00;5112677;28;20479;-69
2021/03/26 12:18:32;;;;;;;13.30;8.53;;;;;;;14.90;24.54;95743.69;5112074;28;20474;-70
2021/03/26 12:21:16;;;;;;;17.13;9.93;;;;;;;14.83;23.91;95742.34;5112827;28;20443;-69
2021/03/26 12:24:14;;;;;;;11.20;8.30;;;;;;;14.86;23.21;95741.81;5112826;28;20447;-67
2021/03/26 12:26:58;;;;;;;14.07;8.37;;;;;;;15.46;23.77;95741.09;5107892;28;20452;-65
2021/03/26 12:29:44;;;;;;;11.73;9.10;;;;;;;15.69;22.87;95748.50;5113573;28;20486;-73
2021/03/26 12:32:28;;;;;;;13.53;8.77;;;;;;;14.95;23.97;95745.53;5115016;28;20480;-67
2021/03/26 12:35:07;;;;;;;13.83;9.10;;;;;;;15.62;25.02;95734.75;5115067;28;20436;-74
2021/03/26 12:37:48;;;;;;;14.77;9.07;;;;;;;15.32;24.13;95745.28;5114843;28;20490;-65